sensor_id;sensor_type;location;lat;lon;timestamp;temperature;humidity
13174;DHT22;6652;48.802;9.190;2023-06-14T00:01:52;16.30;73.20
13174;DHT22;6652;48.802;9.190;2023-06-14T00:04:19;16.30;73.60
13174;DHT22;6652;48.802;9.190;2023-06-14T00:06:46;16.20;73.20
13174;DHT22;6652;48.802;9.190;2023-06-14T00:09:14;16.20;73.50
13174;DHT22;6652;48.802;9.190;2023-06-14T00:11:42;16.20;73.60
13174;DHT22;6652;48.802;9.190;2023-06-14T00:14:09;16.10;73.20
13174;DHT22;6652;48.802;9.190;2023-06-14T00:16:38;16.10;73.50
13174;DHT22;6652;48.802;9.190;2023-06-14T00:19:08;16.00;72.80
13174;DHT22;6652;48.802;9.190;2023-06-14T00:21:35;16.00;73.20
13174;DHT22;6652;48.802;9.190;2023-06-14T00:24:04;15.90;73.20
13174;DHT22;6652;48.802;9.190;2023-06-14T00:26:31;15.90;73.40
13174;DHT22;6652;48.802;9.190;2023-06-14T00:28:57;15.80;73.40
13174;DHT22;6652;48.802;9.190;2023-06-14T00:31:24;15.80;74.00
13174;DHT22;6652;48.802;9.190;2023-06-14T00:33:52;15.70;73.90
13174;DHT22;6652;48.802;9.190;2023-06-14T00:36:19;15.80;74.40
13174;DHT22;6652;48.802;9.190;2023-06-14T00:38:46;15.80;74.60
13174;DHT22;6652;48.802;9.190;2023-06-14T00:41:12;16.10;75.40
13174;DHT22;6652;48.802;9.190;2023-06-14T00:43:39;15.70;75.10
13174;DHT22;6652;48.802;9.190;2023-06-14T00:46:06;15.70;75.40
13174;DHT22;6652;48.802;9.190;2023-06-14T00:48:33;15.70;75.60
13174;DHT22;6652;48.802;9.190;2023-06-14T00:51:02;15.70;75.70
13174;DHT22;6652;48.802;9.190;2023-06-14T00:53:30;15.60;75.50
13174;DHT22;6652;48.802;9.190;2023-06-14T00:55:59;15.60;75.30
13174;DHT22;6652;48.802;9.190;2023-06-14T00:58:26;15.70;75.60
13174;DHT22;6652;48.802;9.190;2023-06-14T01:00:54;15.50;75.50
13174;DHT22;6652;48.802;9.190;2023-06-14T01:03:21;15.50;75.30
13174;DHT22;6652;48.802;9.190;2023-06-14T01:05:49;15.60;75.60
13174;DHT22;6652;48.802;9.190;2023-06-14T01:08:28;15.50;75.90
13174;DHT22;6652;48.802;9.190;2023-06-14T01:11:02;15.50;75.70
13174;DHT22;6652;48.802;9.190;2023-06-14T01:13:34;15.40;76.70
13174;DHT22;6652;48.802;9.190;2023-06-14T01:16:02;15.40;76.10
13174;DHT22;6652;48.802;9.190;2023-06-14T01:18:29;15.30;76.30
13174;DHT22;6652;48.802;9.190;2023-06-14T01:20:57;15.30;76.30
13174;DHT22;6652;48.802;9.190;2023-06-14T01:23:26;15.30;76.60
13174;DHT22;6652;48.802;9.190;2023-06-14T01:25:57;15.30;77.10
13174;DHT22;6652;48.802;9.190;2023-06-14T01:28:27;15.20;77.00
13174;DHT22;6652;48.802;9.190;2023-06-14T01:30:59;15.20;77.40
13174;DHT22;6652;48.802;9.190;2023-06-14T01:33:30;15.10;77.90
13174;DHT22;6652;48.802;9.190;2023-06-14T01:35:58;15.10;77.90
13174;DHT22;6652;48.802;9.190;2023-06-14T01:38:27;15.10;78.40
13174;DHT22;6652;48.802;9.190;2023-06-14T01:40:57;15.00;78.90
13174;DHT22;6652;48.802;9.190;2023-06-14T01:43:25;15.00;79.40
13174;DHT22;6652;48.802;9.190;2023-06-14T01:45:53;14.90;80.30
13174;DHT22;6652;48.802;9.190;2023-06-14T01:48:21;14.90;79.90
13174;DHT22;6652;48.802;9.190;2023-06-14T01:50:48;14.90;80.00
13174;DHT22;6652;48.802;9.190;2023-06-14T01:53:15;14.80;79.40
13174;DHT22;6652;48.802;9.190;2023-06-14T01:55:44;14.80;79.90
13174;DHT22;6652;48.802;9.190;2023-06-14T01:58:14;14.70;80.10
13174;DHT22;6652;48.802;9.190;2023-06-14T02:00:41;14.70;80.10
13174;DHT22;6652;48.802;9.190;2023-06-14T02:03:08;14.70;80.20
13174;DHT22;6652;48.802;9.190;2023-06-14T02:05:37;15.30;81.00
13174;DHT22;6652;48.802;9.190;2023-06-14T02:08:04;15.10;80.50
13174;DHT22;6652;48.802;9.190;2023-06-14T02:10:31;14.60;79.60
13174;DHT22;6652;48.802;9.190;2023-06-14T02:13:00;14.60;79.70
13174;DHT22;6652;48.802;9.190;2023-06-14T02:15:26;14.60;79.90
13174;DHT22;6652;48.802;9.190;2023-06-14T02:17:59;14.90;80.50
13174;DHT22;6652;48.802;9.190;2023-06-14T02:20:27;14.50;80.40
13174;DHT22;6652;48.802;9.190;2023-06-14T02:22:54;14.40;80.60
13174;DHT22;6652;48.802;9.190;2023-06-14T02:25:21;14.40;80.90
13174;DHT22;6652;48.802;9.190;2023-06-14T02:27:47;14.40;81.50
13174;DHT22;6652;48.802;9.190;2023-06-14T02:30:15;14.40;81.70
13174;DHT22;6652;48.802;9.190;2023-06-14T02:32:42;14.30;82.20
13174;DHT22;6652;48.802;9.190;2023-06-14T02:35:09;14.30;82.50
13174;DHT22;6652;48.802;9.190;2023-06-14T02:37:36;14.30;82.50
13174;DHT22;6652;48.802;9.190;2023-06-14T02:40:04;14.20;82.60
13174;DHT22;6652;48.802;9.190;2023-06-14T02:42:31;14.20;82.60
13174;DHT22;6652;48.802;9.190;2023-06-14T02:44:58;14.20;82.40
13174;DHT22;6652;48.802;9.190;2023-06-14T02:47:27;13.80;82.20
13174;DHT22;6652;48.802;9.190;2023-06-14T02:49:54;14.20;82.60
13174;DHT22;6652;48.802;9.190;2023-06-14T02:52:20;14.20;82.80
13174;DHT22;6652;48.802;9.190;2023-06-14T02:54:47;14.10;82.80
13174;DHT22;6652;48.802;9.190;2023-06-14T02:57:14;14.10;82.60
13174;DHT22;6652;48.802;9.190;2023-06-14T02:59:41;14.10;82.60
13174;DHT22;6652;48.802;9.190;2023-06-14T03:02:08;14.10;83.40
13174;DHT22;6652;48.802;9.190;2023-06-14T03:04:36;14.10;82.80
13174;DHT22;6652;48.802;9.190;2023-06-14T03:07:04;14.00;83.10
13174;DHT22;6652;48.802;9.190;2023-06-14T03:09:34;14.00;83.60
13174;DHT22;6652;48.802;9.190;2023-06-14T03:12:01;14.10;83.80
13174;DHT22;6652;48.802;9.190;2023-06-14T03:14:28;14.00;84.00
13174;DHT22;6652;48.802;9.190;2023-06-14T03:16:56;13.90;84.00
13174;DHT22;6652;48.802;9.190;2023-06-14T03:19:22;14.00;84.30
13174;DHT22;6652;48.802;9.190;2023-06-14T03:21:51;14.00;84.30
13174;DHT22;6652;48.802;9.190;2023-06-14T03:24:17;13.90;84.10
13174;DHT22;6652;48.802;9.190;2023-06-14T03:26:45;13.90;84.00
13174;DHT22;6652;48.802;9.190;2023-06-14T03:29:11;13.90;84.30
13174;DHT22;6652;48.802;9.190;2023-06-14T03:31:55;13.90;84.30
13174;DHT22;6652;48.802;9.190;2023-06-14T03:34:22;13.90;84.70
13174;DHT22;6652;48.802;9.190;2023-06-14T03:36:50;14.00;84.60
13174;DHT22;6652;48.802;9.190;2023-06-14T03:39:17;13.90;84.50
13174;DHT22;6652;48.802;9.190;2023-06-14T03:41:44;13.90;84.70
13174;DHT22;6652;48.802;9.190;2023-06-14T03:44:14;13.90;85.10
13174;DHT22;6652;48.802;9.190;2023-06-14T03:46:40;14.00;85.30
13174;DHT22;6652;48.802;9.190;2023-06-14T03:49:07;14.50;86.00
13174;DHT22;6652;48.802;9.190;2023-06-14T03:51:34;14.00;85.40
13174;DHT22;6652;48.802;9.190;2023-06-14T03:54:03;14.00;85.80
13174;DHT22;6652;48.802;9.190;2023-06-14T03:56:29;14.10;86.00
13174;DHT22;6652;48.802;9.190;2023-06-14T03:58:56;14.20;85.90
13174;DHT22;6652;48.802;9.190;2023-06-14T04:01:23;14.40;85.80
13174;DHT22;6652;48.802;9.190;2023-06-14T04:03:55;14.90;85.80
13174;DHT22;6652;48.802;9.190;2023-06-14T04:06:23;15.40;85.00
13174;DHT22;6652;48.802;9.190;2023-06-14T04:08:57;15.90;84.00
13174;DHT22;6652;48.802;9.190;2023-06-14T04:11:31;16.40;82.40
13174;DHT22;6652;48.802;9.190;2023-06-14T04:13:58;16.90;81.10
13174;DHT22;6652;48.802;9.190;2023-06-14T04:16:24;17.40;79.50
13174;DHT22;6652;48.802;9.190;2023-06-14T04:18:51;17.80;78.30
13174;DHT22;6652;48.802;9.190;2023-06-14T04:21:26;18.20;76.60
13174;DHT22;6652;48.802;9.190;2023-06-14T04:23:54;18.60;75.80
13174;DHT22;6652;48.802;9.190;2023-06-14T04:26:21;19.00;74.80
13174;DHT22;6652;48.802;9.190;2023-06-14T04:28:56;19.40;73.70
13174;DHT22;6652;48.802;9.190;2023-06-14T04:31:27;19.70;72.60
13174;DHT22;6652;48.802;9.190;2023-06-14T04:33:54;20.10;72.00
13174;DHT22;6652;48.802;9.190;2023-06-14T04:36:21;20.40;71.70
13174;DHT22;6652;48.802;9.190;2023-06-14T04:38:48;20.90;70.60
13174;DHT22;6652;48.802;9.190;2023-06-14T04:41:20;21.40;69.30
13174;DHT22;6652;48.802;9.190;2023-06-14T04:43:48;21.90;67.90
13174;DHT22;6652;48.802;9.190;2023-06-14T04:46:16;22.30;66.40
13174;DHT22;6652;48.802;9.190;2023-06-14T04:48:44;22.60;65.10
13174;DHT22;6652;48.802;9.190;2023-06-14T04:51:11;23.00;63.40
13174;DHT22;6652;48.802;9.190;2023-06-14T04:53:44;23.30;61.80
13174;DHT22;6652;48.802;9.190;2023-06-14T04:56:11;23.50;60.80
13174;DHT22;6652;48.802;9.190;2023-06-14T04:58:38;23.80;60.10
13174;DHT22;6652;48.802;9.190;2023-06-14T05:01:04;24.00;60.20
13174;DHT22;6652;48.802;9.190;2023-06-14T05:03:35;24.30;59.90
13174;DHT22;6652;48.802;9.190;2023-06-14T05:06:02;24.50;58.30
13174;DHT22;6652;48.802;9.190;2023-06-14T05:08:29;24.70;57.50
13174;DHT22;6652;48.802;9.190;2023-06-14T05:10:56;25.00;57.90
13174;DHT22;6652;48.802;9.190;2023-06-14T05:13:23;25.00;56.50
13174;DHT22;6652;48.802;9.190;2023-06-14T05:15:53;25.20;56.50
13174;DHT22;6652;48.802;9.190;2023-06-14T05:18:20;25.30;57.10
13174;DHT22;6652;48.802;9.190;2023-06-14T05:20:48;25.60;56.90
13174;DHT22;6652;48.802;9.190;2023-06-14T05:23:15;25.80;55.80
13174;DHT22;6652;48.802;9.190;2023-06-14T05:25:42;26.00;55.10
13174;DHT22;6652;48.802;9.190;2023-06-14T05:28:09;26.30;54.70
13174;DHT22;6652;48.802;9.190;2023-06-14T05:30:38;26.50;54.30
13174;DHT22;6652;48.802;9.190;2023-06-14T05:33:13;26.70;53.50
13174;DHT22;6652;48.802;9.190;2023-06-14T05:35:40;26.90;53.20
13174;DHT22;6652;48.802;9.190;2023-06-14T05:38:08;27.20;52.70
13174;DHT22;6652;48.802;9.190;2023-06-14T05:40:35;27.60;52.10
13174;DHT22;6652;48.802;9.190;2023-06-14T05:43:02;27.60;52.00
13174;DHT22;6652;48.802;9.190;2023-06-14T05:45:29;27.60;52.10
13174;DHT22;6652;48.802;9.190;2023-06-14T05:47:56;28.00;51.40
13174;DHT22;6652;48.802;9.190;2023-06-14T05:50:23;28.10;51.00
13174;DHT22;6652;48.802;9.190;2023-06-14T05:52:50;28.50;50.60
13174;DHT22;6652;48.802;9.190;2023-06-14T05:55:18;28.70;50.10
13174;DHT22;6652;48.802;9.190;2023-06-14T05:57:45;28.90;50.40
13174;DHT22;6652;48.802;9.190;2023-06-14T06:00:14;29.10;49.90
13174;DHT22;6652;48.802;9.190;2023-06-14T06:02:41;29.40;49.60
13174;DHT22;6652;48.802;9.190;2023-06-14T06:05:09;29.50;48.60
13174;DHT22;6652;48.802;9.190;2023-06-14T06:07:35;29.50;48.30
13174;DHT22;6652;48.802;9.190;2023-06-14T06:10:03;29.60;46.50
13174;DHT22;6652;48.802;9.190;2023-06-14T06:12:32;29.90;46.20
13174;DHT22;6652;48.802;9.190;2023-06-14T06:14:59;29.70;46.00
13174;DHT22;6652;48.802;9.190;2023-06-14T06:17:26;29.90;47.80
13174;DHT22;6652;48.802;9.190;2023-06-14T06:19:53;30.50;47.10
13174;DHT22;6652;48.802;9.190;2023-06-14T06:22:20;30.80;46.60
13174;DHT22;6652;48.802;9.190;2023-06-14T06:24:47;31.00;45.30
13174;DHT22;6652;48.802;9.190;2023-06-14T06:27:13;30.80;45.80
13174;DHT22;6652;48.802;9.190;2023-06-14T06:29:42;31.10;45.70
13174;DHT22;6652;48.802;9.190;2023-06-14T06:32:10;31.30;45.50
13174;DHT22;6652;48.802;9.190;2023-06-14T06:34:37;31.40;44.70
13174;DHT22;6652;48.802;9.190;2023-06-14T06:37:04;31.30;44.70
13174;DHT22;6652;48.802;9.190;2023-06-14T06:39:31;31.30;44.60
13174;DHT22;6652;48.802;9.190;2023-06-14T06:41:58;31.60;44.70
13174;DHT22;6652;48.802;9.190;2023-06-14T06:44:25;31.70;44.40
13174;DHT22;6652;48.802;9.190;2023-06-14T06:46:53;31.90;43.90
13174;DHT22;6652;48.802;9.190;2023-06-14T06:49:19;31.80;43.80
13174;DHT22;6652;48.802;9.190;2023-06-14T06:51:59;32.00;44.40
13174;DHT22;6652;48.802;9.190;2023-06-14T06:54:27;32.20;43.40
13174;DHT22;6652;48.802;9.190;2023-06-14T06:56:53;32.20;44.20
13174;DHT22;6652;48.802;9.190;2023-06-14T06:59:21;32.40;42.00
13174;DHT22;6652;48.802;9.190;2023-06-14T07:01:48;32.30;42.50
13174;DHT22;6652;48.802;9.190;2023-06-14T07:04:16;32.50;41.70
13174;DHT22;6652;48.802;9.190;2023-06-14T07:06:46;32.70;41.20
13174;DHT22;6652;48.802;9.190;2023-06-14T07:09:13;32.60;40.10
13174;DHT22;6652;48.802;9.190;2023-06-14T07:11:42;32.40;40.40
13174;DHT22;6652;48.802;9.190;2023-06-14T07:14:09;32.50;40.50
13174;DHT22;6652;48.802;9.190;2023-06-14T07:16:36;33.10;40.70
13174;DHT22;6652;48.802;9.190;2023-06-14T07:19:03;33.40;40.40
13174;DHT22;6652;48.802;9.190;2023-06-14T07:21:32;33.50;39.70
13174;DHT22;6652;48.802;9.190;2023-06-14T07:23:58;33.60;39.40
13174;DHT22;6652;48.802;9.190;2023-06-14T07:26:25;33.80;39.80
13174;DHT22;6652;48.802;9.190;2023-06-14T07:28:52;33.90;39.80
13174;DHT22;6652;48.802;9.190;2023-06-14T07:31:19;33.60;39.70
13174;DHT22;6652;48.802;9.190;2023-06-14T07:33:46;33.40;39.40
13174;DHT22;6652;48.802;9.190;2023-06-14T07:36:13;33.30;39.80
13174;DHT22;6652;48.802;9.190;2023-06-14T07:38:41;33.20;39.50
13174;DHT22;6652;48.802;9.190;2023-06-14T07:41:08;32.60;40.50
13174;DHT22;6652;48.802;9.190;2023-06-14T07:43:35;32.30;40.50
13174;DHT22;6652;48.802;9.190;2023-06-14T07:46:02;32.10;41.20
13174;DHT22;6652;48.802;9.190;2023-06-14T07:48:28;31.70;41.10
13174;DHT22;6652;48.802;9.190;2023-06-14T07:50:55;32.00;41.40
13174;DHT22;6652;48.802;9.190;2023-06-14T07:53:22;32.50;41.00
13174;DHT22;6652;48.802;9.190;2023-06-14T07:55:50;32.60;41.40
13174;DHT22;6652;48.802;9.190;2023-06-14T07:58:18;33.00;41.60
13174;DHT22;6652;48.802;9.190;2023-06-14T08:00:45;33.40;42.40
13174;DHT22;6652;48.802;9.190;2023-06-14T08:03:12;33.60;40.50
13174;DHT22;6652;48.802;9.190;2023-06-14T08:05:43;33.40;41.10
13174;DHT22;6652;48.802;9.190;2023-06-14T08:08:10;33.80;41.50
13174;DHT22;6652;48.802;9.190;2023-06-14T08:10:36;33.90;40.40
13174;DHT22;6652;48.802;9.190;2023-06-14T08:13:05;33.90;40.50
13174;DHT22;6652;48.802;9.190;2023-06-14T08:15:32;34.00;40.60
13174;DHT22;6652;48.802;9.190;2023-06-14T08:17:59;33.70;40.40
13174;DHT22;6652;48.802;9.190;2023-06-14T08:20:26;33.80;41.00
13174;DHT22;6652;48.802;9.190;2023-06-14T08:22:53;33.80;40.40
13174;DHT22;6652;48.802;9.190;2023-06-14T08:25:22;33.80;40.70
13174;DHT22;6652;48.802;9.190;2023-06-14T08:27:49;34.10;40.60
13174;DHT22;6652;48.802;9.190;2023-06-14T08:30:18;34.20;40.50
13174;DHT22;6652;48.802;9.190;2023-06-14T08:32:45;33.90;41.50
13174;DHT22;6652;48.802;9.190;2023-06-14T08:35:12;34.10;41.00
13174;DHT22;6652;48.802;9.190;2023-06-14T08:37:39;34.20;42.10
13174;DHT22;6652;48.802;9.190;2023-06-14T08:40:17;34.50;41.00
13174;DHT22;6652;48.802;9.190;2023-06-14T08:42:47;34.40;40.40
13174;DHT22;6652;48.802;9.190;2023-06-14T08:45:14;34.10;40.10
13174;DHT22;6652;48.802;9.190;2023-06-14T08:47:42;33.90;40.10
13174;DHT22;6652;48.802;9.190;2023-06-14T08:50:11;34.20;41.70
13174;DHT22;6652;48.802;9.190;2023-06-14T08:52:41;34.60;40.70
13174;DHT22;6652;48.802;9.190;2023-06-14T08:55:11;35.10;39.90
13174;DHT22;6652;48.802;9.190;2023-06-14T08:57:40;35.00;39.40
13174;DHT22;6652;48.802;9.190;2023-06-14T09:00:08;34.70;40.10
13174;DHT22;6652;48.802;9.190;2023-06-14T09:02:41;34.60;39.90
13174;DHT22;6652;48.802;9.190;2023-06-14T09:05:09;34.70;39.90
13174;DHT22;6652;48.802;9.190;2023-06-14T09:07:39;34.60;40.20
13174;DHT22;6652;48.802;9.190;2023-06-14T09:10:08;34.30;40.20
13174;DHT22;6652;48.802;9.190;2023-06-14T09:12:36;34.20;40.40
13174;DHT22;6652;48.802;9.190;2023-06-14T09:15:04;34.40;40.30
13174;DHT22;6652;48.802;9.190;2023-06-14T09:17:33;34.50;40.50
13174;DHT22;6652;48.802;9.190;2023-06-14T09:20:10;35.20;39.60
13174;DHT22;6652;48.802;9.190;2023-06-14T09:22:39;34.60;40.00
13174;DHT22;6652;48.802;9.190;2023-06-14T09:25:07;34.90;40.20
13174;DHT22;6652;48.802;9.190;2023-06-14T09:27:34;35.20;39.70
13174;DHT22;6652;48.802;9.190;2023-06-14T09:30:06;35.20;40.70
13174;DHT22;6652;48.802;9.190;2023-06-14T09:32:37;35.70;39.20
13174;DHT22;6652;48.802;9.190;2023-06-14T09:35:06;36.10;38.60
13174;DHT22;6652;48.802;9.190;2023-06-14T09:37:34;36.10;38.20
13174;DHT22;6652;48.802;9.190;2023-06-14T09:40:04;36.00;38.80
13174;DHT22;6652;48.802;9.190;2023-06-14T09:42:31;35.50;40.40
13174;DHT22;6652;48.802;9.190;2023-06-14T09:45:02;36.10;39.10
13174;DHT22;6652;48.802;9.190;2023-06-14T09:47:30;36.20;37.90
13174;DHT22;6652;48.802;9.190;2023-06-14T09:49:57;35.50;38.40
13174;DHT22;6652;48.802;9.190;2023-06-14T09:52:27;35.30;37.70
13174;DHT22;6652;48.802;9.190;2023-06-14T09:54:55;35.20;38.70
13174;DHT22;6652;48.802;9.190;2023-06-14T09:57:23;35.60;38.80
13174;DHT22;6652;48.802;9.190;2023-06-14T09:59:53;35.80;38.30
13174;DHT22;6652;48.802;9.190;2023-06-14T10:02:39;35.20;37.70
13174;DHT22;6652;48.802;9.190;2023-06-14T10:05:15;33.60;39.50
13174;DHT22;6652;48.802;9.190;2023-06-14T10:07:50;33.00;41.60
13174;DHT22;6652;48.802;9.190;2023-06-14T10:10:19;33.10;42.00
13174;DHT22;6652;48.802;9.190;2023-06-14T10:12:46;31.80;40.70
13174;DHT22;6652;48.802;9.190;2023-06-14T10:15:19;30.70;42.30
13174;DHT22;6652;48.802;9.190;2023-06-14T10:17:50;29.70;42.20
13174;DHT22;6652;48.802;9.190;2023-06-14T10:20:25;30.00;43.40
13174;DHT22;6652;48.802;9.190;2023-06-14T10:22:58;31.40;42.30
13174;DHT22;6652;48.802;9.190;2023-06-14T10:25:27;31.50;42.30
13174;DHT22;6652;48.802;9.190;2023-06-14T10:28:03;30.50;43.10
13174;DHT22;6652;48.802;9.190;2023-06-14T10:30:32;30.00;44.50
13174;DHT22;6652;48.802;9.190;2023-06-14T10:33:05;29.80;44.00
13174;DHT22;6652;48.802;9.190;2023-06-14T10:35:33;29.50;44.00
13174;DHT22;6652;48.802;9.190;2023-06-14T10:38:08;29.40;44.10
13174;DHT22;6652;48.802;9.190;2023-06-14T10:40:36;29.00;44.40
13174;DHT22;6652;48.802;9.190;2023-06-14T10:43:21;28.60;45.20
13174;DHT22;6652;48.802;9.190;2023-06-14T10:46:14;28.80;46.50
13174;DHT22;6652;48.802;9.190;2023-06-14T10:48:42;29.00;45.80
13174;DHT22;6652;48.802;9.190;2023-06-14T10:51:16;28.80;45.30
13174;DHT22;6652;48.802;9.190;2023-06-14T10:53:47;28.50;44.90
13174;DHT22;6652;48.802;9.190;2023-06-14T10:56:27;28.40;44.70
13174;DHT22;6652;48.802;9.190;2023-06-14T10:58:54;28.60;44.50
13174;DHT22;6652;48.802;9.190;2023-06-14T11:01:32;28.30;44.00
13174;DHT22;6652;48.802;9.190;2023-06-14T11:04:07;27.90;44.30
13174;DHT22;6652;48.802;9.190;2023-06-14T11:06:45;27.90;44.30
13174;DHT22;6652;48.802;9.190;2023-06-14T11:09:48;27.80;44.40
13174;DHT22;6652;48.802;9.190;2023-06-14T11:12:18;27.70;44.20
13174;DHT22;6652;48.802;9.190;2023-06-14T11:14:46;27.90;44.50
13174;DHT22;6652;48.802;9.190;2023-06-14T11:17:14;28.10;44.70
13174;DHT22;6652;48.802;9.190;2023-06-14T11:19:40;27.90;43.20
13174;DHT22;6652;48.802;9.190;2023-06-14T11:22:07;27.60;43.90
13174;DHT22;6652;48.802;9.190;2023-06-14T11:24:34;27.50;43.60
13174;DHT22;6652;48.802;9.190;2023-06-14T11:27:03;27.30;43.80
13174;DHT22;6652;48.802;9.190;2023-06-14T11:29:30;27.30;44.40
13174;DHT22;6652;48.802;9.190;2023-06-14T11:31:57;27.50;44.30
13174;DHT22;6652;48.802;9.190;2023-06-14T11:34:24;27.80;44.80
13174;DHT22;6652;48.802;9.190;2023-06-14T11:36:51;28.00;44.70
13174;DHT22;6652;48.802;9.190;2023-06-14T11:39:24;28.30;45.30
13174;DHT22;6652;48.802;9.190;2023-06-14T11:41:51;28.70;44.30
13174;DHT22;6652;48.802;9.190;2023-06-14T11:44:19;28.50;44.10
13174;DHT22;6652;48.802;9.190;2023-06-14T11:46:46;28.40;43.50
13174;DHT22;6652;48.802;9.190;2023-06-14T11:49:13;28.10;43.20
13174;DHT22;6652;48.802;9.190;2023-06-14T11:51:40;28.00;42.80
13174;DHT22;6652;48.802;9.190;2023-06-14T11:54:09;27.70;42.50
13174;DHT22;6652;48.802;9.190;2023-06-14T11:56:36;27.70;44.20
13174;DHT22;6652;48.802;9.190;2023-06-14T11:59:03;28.30;45.00
13174;DHT22;6652;48.802;9.190;2023-06-14T12:01:35;28.80;43.20
13174;DHT22;6652;48.802;9.190;2023-06-14T12:04:02;28.40;43.50
13174;DHT22;6652;48.802;9.190;2023-06-14T12:06:30;28.10;43.80
13174;DHT22;6652;48.802;9.190;2023-06-14T12:09:03;28.00;44.00
13174;DHT22;6652;48.802;9.190;2023-06-14T12:11:33;27.80;43.40
13174;DHT22;6652;48.802;9.190;2023-06-14T12:14:00;27.90;44.10
13174;DHT22;6652;48.802;9.190;2023-06-14T12:16:32;28.10;43.80
13174;DHT22;6652;48.802;9.190;2023-06-14T12:19:01;28.20;44.10
13174;DHT22;6652;48.802;9.190;2023-06-14T12:21:28;27.90;43.70
13174;DHT22;6652;48.802;9.190;2023-06-14T12:23:55;28.00;45.50
13174;DHT22;6652;48.802;9.190;2023-06-14T12:26:25;28.40;44.50
13174;DHT22;6652;48.802;9.190;2023-06-14T12:28:53;28.20;43.10
13174;DHT22;6652;48.802;9.190;2023-06-14T12:31:20;28.30;43.00
13174;DHT22;6652;48.802;9.190;2023-06-14T12:33:49;28.00;43.10
13174;DHT22;6652;48.802;9.190;2023-06-14T12:36:16;28.10;45.10
13174;DHT22;6652;48.802;9.190;2023-06-14T12:38:43;28.30;45.50
13174;DHT22;6652;48.802;9.190;2023-06-14T12:41:11;28.50;44.90
13174;DHT22;6652;48.802;9.190;2023-06-14T12:43:39;28.50;44.20
13174;DHT22;6652;48.802;9.190;2023-06-14T12:46:05;28.60;44.40
13174;DHT22;6652;48.802;9.190;2023-06-14T12:48:32;28.00;43.80
13174;DHT22;6652;48.802;9.190;2023-06-14T12:51:01;27.90;44.50
13174;DHT22;6652;48.802;9.190;2023-06-14T12:53:28;27.60;45.00
13174;DHT22;6652;48.802;9.190;2023-06-14T12:55:54;27.50;44.50
13174;DHT22;6652;48.802;9.190;2023-06-14T12:58:21;27.50;44.70
13174;DHT22;6652;48.802;9.190;2023-06-14T13:00:49;27.50;43.40
13174;DHT22;6652;48.802;9.190;2023-06-14T13:03:16;27.50;42.90
13174;DHT22;6652;48.802;9.190;2023-06-14T13:05:42;27.40;43.00
13174;DHT22;6652;48.802;9.190;2023-06-14T13:08:11;27.50;43.90
13174;DHT22;6652;48.802;9.190;2023-06-14T13:10:37;27.40;44.10
13174;DHT22;6652;48.802;9.190;2023-06-14T13:13:04;27.60;43.60
13174;DHT22;6652;48.802;9.190;2023-06-14T13:15:33;27.60;44.10
13174;DHT22;6652;48.802;9.190;2023-06-14T13:17:59;27.80;45.50
13174;DHT22;6652;48.802;9.190;2023-06-14T13:20:27;28.00;44.80
13174;DHT22;6652;48.802;9.190;2023-06-14T13:22:53;28.10;44.40
13174;DHT22;6652;48.802;9.190;2023-06-14T13:25:21;28.00;45.50
13174;DHT22;6652;48.802;9.190;2023-06-14T13:27:48;27.80;45.00
13174;DHT22;6652;48.802;9.190;2023-06-14T13:30:15;27.50;45.40
13174;DHT22;6652;48.802;9.190;2023-06-14T13:32:42;27.50;46.00
13174;DHT22;6652;48.802;9.190;2023-06-14T13:35:09;27.40;45.30
13174;DHT22;6652;48.802;9.190;2023-06-14T13:37:36;27.30;45.80
13174;DHT22;6652;48.802;9.190;2023-06-14T13:40:03;27.50;46.50
13174;DHT22;6652;48.802;9.190;2023-06-14T13:42:31;27.70;45.40
13174;DHT22;6652;48.802;9.190;2023-06-14T13:44:58;27.40;45.70
13174;DHT22;6652;48.802;9.190;2023-06-14T13:47:25;27.30;45.20
13174;DHT22;6652;48.802;9.190;2023-06-14T13:49:52;27.30;45.70
13174;DHT22;6652;48.802;9.190;2023-06-14T13:52:19;27.40;44.80
13174;DHT22;6652;48.802;9.190;2023-06-14T13:54:46;27.50;44.90
13174;DHT22;6652;48.802;9.190;2023-06-14T13:57:12;27.40;44.60
13174;DHT22;6652;48.802;9.190;2023-06-14T13:59:41;27.60;44.40
13174;DHT22;6652;48.802;9.190;2023-06-14T14:02:09;27.80;44.90
13174;DHT22;6652;48.802;9.190;2023-06-14T14:04:37;28.20;45.20
13174;DHT22;6652;48.802;9.190;2023-06-14T14:07:05;28.30;44.50
13174;DHT22;6652;48.802;9.190;2023-06-14T14:09:32;28.00;44.90
13174;DHT22;6652;48.802;9.190;2023-06-14T14:12:00;28.10;45.10
13174;DHT22;6652;48.802;9.190;2023-06-14T14:14:27;28.30;45.00
13174;DHT22;6652;48.802;9.190;2023-06-14T14:16:55;28.40;43.90
13174;DHT22;6652;48.802;9.190;2023-06-14T14:19:22;28.90;44.80
13174;DHT22;6652;48.802;9.190;2023-06-14T14:21:49;28.30;45.40
13174;DHT22;6652;48.802;9.190;2023-06-14T14:24:15;27.80;45.50
13174;DHT22;6652;48.802;9.190;2023-06-14T14:26:42;27.90;46.40
13174;DHT22;6652;48.802;9.190;2023-06-14T14:29:09;27.90;46.10
13174;DHT22;6652;48.802;9.190;2023-06-14T14:31:37;27.60;46.60
13174;DHT22;6652;48.802;9.190;2023-06-14T14:34:05;27.10;46.50
13174;DHT22;6652;48.802;9.190;2023-06-14T14:36:31;26.70;47.40
13174;DHT22;6652;48.802;9.190;2023-06-14T14:39:01;26.70;47.80
13174;DHT22;6652;48.802;9.190;2023-06-14T14:41:28;26.80;48.20
13174;DHT22;6652;48.802;9.190;2023-06-14T14:43:55;26.90;46.90
13174;DHT22;6652;48.802;9.190;2023-06-14T14:46:24;26.80;47.40
13174;DHT22;6652;48.802;9.190;2023-06-14T14:48:50;27.00;46.70
13174;DHT22;6652;48.802;9.190;2023-06-14T14:51:19;27.10;46.50
13174;DHT22;6652;48.802;9.190;2023-06-14T14:53:45;27.10;46.30
13174;DHT22;6652;48.802;9.190;2023-06-14T14:56:12;27.20;45.90
13174;DHT22;6652;48.802;9.190;2023-06-14T14:58:39;27.10;45.80
13174;DHT22;6652;48.802;9.190;2023-06-14T15:01:06;27.20;46.50
13174;DHT22;6652;48.802;9.190;2023-06-14T15:03:33;27.20;46.00
13174;DHT22;6652;48.802;9.190;2023-06-14T15:05:59;26.90;47.00
13174;DHT22;6652;48.802;9.190;2023-06-14T15:08:28;26.90;47.50
13174;DHT22;6652;48.802;9.190;2023-06-14T15:10:54;27.00;47.80
13174;DHT22;6652;48.802;9.190;2023-06-14T15:13:21;27.10;48.20
13174;DHT22;6652;48.802;9.190;2023-06-14T15:15:49;27.00;47.20
13174;DHT22;6652;48.802;9.190;2023-06-14T15:18:15;27.10;47.60
13174;DHT22;6652;48.802;9.190;2023-06-14T15:20:42;27.30;47.60
13174;DHT22;6652;48.802;9.190;2023-06-14T15:23:09;27.50;47.60
13174;DHT22;6652;48.802;9.190;2023-06-14T15:25:51;27.50;47.50
13174;DHT22;6652;48.802;9.190;2023-06-14T15:28:18;27.60;46.70
13174;DHT22;6652;48.802;9.190;2023-06-14T15:30:47;27.30;46.50
13174;DHT22;6652;48.802;9.190;2023-06-14T15:33:13;27.20;47.20
13174;DHT22;6652;48.802;9.190;2023-06-14T15:35:40;27.00;47.30
13174;DHT22;6652;48.802;9.190;2023-06-14T15:38:07;26.80;47.60
13174;DHT22;6652;48.802;9.190;2023-06-14T15:40:34;26.40;47.90
13174;DHT22;6652;48.802;9.190;2023-06-14T15:43:02;26.30;48.10
13174;DHT22;6652;48.802;9.190;2023-06-14T15:45:29;26.30;48.80
13174;DHT22;6652;48.802;9.190;2023-06-14T15:47:56;25.60;48.90
13174;DHT22;6652;48.802;9.190;2023-06-14T15:50:23;25.40;48.90
13174;DHT22;6652;48.802;9.190;2023-06-14T15:52:50;25.30;49.20